CNW3 weather

Bancroft Airport
Bancroft, Ontario, Canada

Public forecast

Using degrees Celsius for public forecast. Weather courtesy of forecast.io.

Closest aviation weather report (METAR) to Bancroft Airport

Closest report is Peterborough Airport, 54.7 nm (101.2 km) SSW. Retrieved 2019/11/17 16:00 UTC (24 minutes ago):

CYPQ 171600Z AUTO 08006KT 9SM CLR M02/M08 A3024 RMK PRESFR SLP254

Closest aviation forecast (TAF) to Bancroft Airport

Closest forecast is Peterborough Airport, 54.7 nm (101.2 km) SSW. Retrieved 2019/11/17 14:42 UTC (2 hours ago):

TAF CYPQ 171338Z 1714/1802 VRB03KT P6SM SKC BECMG 1715/1717 12008KT BECMG 1722/1724 VRB03KT RMK FCST BASED ON AUTO OBS NXT FCST BY 172000Z